Time;durP1;ratioP1;P1;durP2;ratioP2;P2;SDS_P1;SDS_P2;PMS_P1;PMS_P2;Temp;Humidity;BMP_temperature;BMP_pressure;BME280_temperature;BME280_humidity;BME280_pressure;Samples;Min_cycle;Max_cycle;Signal;HPM_P1;HPM_P2
2023/09/15 00:01:49;;;;;;;9.60;6.57;;;16.50;82.70;;;;;;4954548;28;20479;-73
2023/09/15 00:04:15;;;;;;;10.50;7.03;;;16.50;82.70;;;;;;4973685;28;20145;-74
2023/09/15 00:06:41;;;;;;;8.98;6.60;;;16.50;82.70;;;;;;4959890;28;20027;-74
2023/09/15 00:09:14;;;;;;;9.00;7.07;;;16.50;82.60;;;;;;4976800;28;20063;-74
2023/09/15 00:11:40;;;;;;;9.15;6.85;;;16.50;82.70;;;;;;4962260;28;20035;-75
2023/09/15 00:14:08;;;;;;;8.02;6.43;;;16.50;82.80;;;;;;4988822;28;20734;-73
2023/09/15 00:16:34;;;;;;;10.73;7.05;;;16.50;82.90;;;;;;4958811;28;20026;-73
2023/09/15 00:18:59;;;;;;;9.90;7.18;;;16.50;82.90;;;;;;4942634;28;20122;-74
2023/09/15 00:21:26;;;;;;;9.88;6.78;;;16.50;82.90;;;;;;4941603;28;20032;-74
2023/09/15 00:23:52;;;;;;;9.93;7.00;;;16.50;83.00;;;;;;4946096;28;20666;-76
2023/09/15 00:26:23;;;;;;;9.65;6.78;;;16.50;83.00;;;;;;4955591;28;20059;-75
2023/09/15 00:28:49;;;;;;;9.40;6.85;;;16.50;82.80;;;;;;4943925;28;20071;-74
2023/09/15 00:31:15;;;;;;;11.65;7.38;;;16.50;82.90;;;;;;4951462;28;20085;-73
2023/09/15 00:33:40;;;;;;;12.68;7.90;;;16.50;83.00;;;;;;4951627;28;20039;-74
2023/09/15 00:36:06;;;;;;;11.85;7.75;;;16.40;83.00;;;;;;4964158;28;20042;-73
2023/09/15 00:38:32;;;;;;;11.57;7.70;;;16.40;82.90;;;;;;4938345;28;20031;-75
2023/09/15 00:40:58;;;;;;;9.70;6.97;;;16.40;82.90;;;;;;4940562;28;20027;-73
2023/09/15 00:43:24;;;;;;;10.35;8.30;;;16.40;83.00;;;;;;4979651;28;20387;-74
2023/09/15 00:45:50;;;;;;;10.82;7.72;;;16.40;83.00;;;;;;5045754;28;20029;-75
2023/09/15 00:48:17;;;;;;;10.27;7.85;;;16.30;83.10;;;;;;4980547;28;20078;-75
2023/09/15 00:50:43;;;;;;;10.82;6.95;;;16.40;83.10;;;;;;4946055;28;20046;-74
2023/09/15 00:53:15;;;;;;;12.45;7.60;;;16.30;83.20;;;;;;4945488;28;20494;-74
2023/09/15 00:55:42;;;;;;;9.90;7.00;;;16.30;83.30;;;;;;4941472;28;20955;-75
2023/09/15 00:58:11;;;;;;;9.75;7.53;;;16.20;83.40;;;;;;4940238;28;20065;-74
2023/09/15 01:00:43;;;;;;;10.57;7.80;;;16.20;83.50;;;;;;4934318;28;20028;-76
2023/09/15 01:03:11;;;;;;;9.82;7.38;;;16.20;83.50;;;;;;5007898;28;20037;-73
2023/09/15 01:05:39;;;;;;;10.50;7.38;;;16.10;83.60;;;;;;5040369;28;20426;-76
2023/09/15 01:08:06;;;;;;;10.32;7.53;;;16.10;83.80;;;;;;4977176;28;20143;-76
2023/09/15 01:10:33;;;;;;;10.07;7.93;;;16.10;83.90;;;;;;4950726;28;20035;-74
2023/09/15 01:12:59;;;;;;;10.82;8.23;;;16.10;84.00;;;;;;4948328;28;20889;-75
2023/09/15 01:15:37;;;;;;;11.20;7.90;;;16.00;84.10;;;;;;4960423;28;20692;-76
2023/09/15 01:18:19;;;;;;;12.10;7.50;;;16.00;84.10;;;;;;4950564;28;20031;-74
2023/09/15 01:20:48;;;;;;;9.32;7.22;;;16.00;84.30;;;;;;4959463;28;20073;-76
2023/09/15 01:23:29;;;;;;;11.43;8.38;;;15.90;84.40;;;;;;4955171;28;20085;-76
2023/09/15 01:26:29;;;;;;;10.98;8.25;;;15.90;84.30;;;;;;4958913;28;20171;-76
2023/09/15 01:28:57;;;;;;;11.23;7.68;;;15.80;84.40;;;;;;4959628;28;20090;-75
2023/09/15 01:31:24;;;;;;;10.10;7.97;;;15.80;84.40;;;;;;4956764;28;20122;-75
2023/09/15 01:33:51;;;;;;;11.07;8.45;;;15.70;84.50;;;;;;5008211;28;20506;-74
2023/09/15 01:36:16;;;;;;;10.27;7.93;;;15.70;84.50;;;;;;5038571;28;20049;-76
2023/09/15 01:38:42;;;;;;;11.60;8.82;;;15.70;84.50;;;;;;4960666;28;20082;-75
2023/09/15 01:41:08;;;;;;;12.30;8.80;;;15.60;84.60;;;;;;4962160;28;20042;-75
2023/09/15 01:43:34;;;;;;;12.45;8.32;;;15.60;84.60;;;;;;4975922;28;20041;-75
2023/09/15 01:45:59;;;;;;;11.05;8.27;;;15.60;84.70;;;;;;4963114;28;20112;-75
2023/09/15 01:48:26;;;;;;;13.73;9.32;;;15.50;84.80;;;;;;4982705;28;20035;-75
2023/09/15 01:50:52;;;;;;;12.52;8.75;;;15.50;84.90;;;;;;4958641;28;20058;-76
2023/09/15 01:53:18;;;;;;;11.70;8.48;;;15.50;85.10;;;;;;4962029;28;20460;-75
2023/09/15 01:55:44;;;;;;;12.73;8.43;;;15.40;85.10;;;;;;4960581;28;20110;-75
2023/09/15 01:58:10;;;;;;;12.70;8.48;;;15.40;85.20;;;;;;4958724;28;20042;-75
2023/09/15 02:00:36;;;;;;;10.50;7.40;;;15.40;85.40;;;;;;4956765;28;20519;-75
2023/09/15 02:03:03;;;;;;;11.43;8.27;;;15.40;85.40;;;;;;4961312;28;20041;-75
2023/09/15 02:05:29;;;;;;;13.48;9.60;;;15.30;85.50;;;;;;4960214;28;20357;-74
2023/09/15 02:07:55;;;;;;;14.48;9.10;;;15.20;85.50;;;;;;4968319;28;20346;-76
2023/09/15 02:10:21;;;;;;;12.15;9.18;;;15.30;85.70;;;;;;4978841;28;20650;-77
2023/09/15 02:12:47;;;;;;;10.25;8.48;;;15.20;85.70;;;;;;4974475;28;21106;-76
2023/09/15 02:15:12;;;;;;;10.65;8.65;;;15.20;85.70;;;;;;4969340;28;20110;-76
2023/09/15 02:17:38;;;;;;;12.85;8.73;;;15.20;85.90;;;;;;4957853;28;20031;-76
2023/09/15 02:20:16;;;;;;;12.27;9.13;;;15.10;85.70;;;;;;4962652;28;20051;-75
2023/09/15 02:22:42;;;;;;;14.98;9.30;;;15.10;85.90;;;;;;4960762;28;20054;-76
2023/09/15 02:25:11;;;;;;;11.05;9.15;;;15.10;86.00;;;;;;4959008;28;20473;-76
2023/09/15 02:27:37;;;;;;;12.32;9.30;;;15.10;86.20;;;;;;4949631;28;20052;-75
2023/09/15 02:30:04;;;;;;;11.98;9.00;;;15.00;86.30;;;;;;4944025;28;20027;-74
2023/09/15 02:32:30;;;;;;;12.40;9.80;;;15.00;86.40;;;;;;4956665;28;20047;-76
2023/09/15 02:34:56;;;;;;;11.23;9.68;;;14.90;86.60;;;;;;5036775;28;20032;-76
2023/09/15 02:37:22;;;;;;;12.10;9.50;;;14.80;86.70;;;;;;5012085;28;20144;-76
2023/09/15 02:39:47;;;;;;;12.52;9.60;;;14.80;86.90;;;;;;4948183;28;20027;-75
2023/09/15 02:42:13;;;;;;;11.38;8.68;;;14.80;87.00;;;;;;4948477;28;20043;-75
2023/09/15 02:44:39;;;;;;;14.23;10.52;;;14.80;87.10;;;;;;4939562;28;20119;-76
2023/09/15 02:47:04;;;;;;;10.73;8.95;;;14.80;87.20;;;;;;4941327;28;20712;-76
2023/09/15 02:49:30;;;;;;;13.57;9.70;;;14.70;87.00;;;;;;4960295;28;20041;-74
2023/09/15 02:51:57;;;;;;;11.68;9.07;;;14.70;87.10;;;;;;4961779;28;20054;-76
2023/09/15 02:54:23;;;;;;;12.77;9.52;;;14.70;87.20;;;;;;4959568;28;20035;-75
2023/09/15 02:56:48;;;;;;;11.38;9.75;;;14.70;87.30;;;;;;4961318;28;20030;-76
2023/09/15 02:59:14;;;;;;;12.07;9.60;;;14.60;87.50;;;;;;4955189;28;20070;-75
2023/09/15 03:01:40;;;;;;;12.18;9.75;;;14.60;87.40;;;;;;4955445;28;20046;-74
2023/09/15 03:04:05;;;;;;;15.48;10.15;;;14.60;87.40;;;;;;4958823;28;20070;-75
2023/09/15 03:06:31;;;;;;;13.27;10.93;;;14.60;87.50;;;;;;4961441;28;20031;-75
2023/09/15 03:08:57;;;;;;;15.02;10.55;;;14.60;87.70;;;;;;5011545;28;20029;-75
2023/09/15 03:11:23;;;;;;;12.60;10.13;;;14.60;87.60;;;;;;5041204;28;20068;-75
2023/09/15 03:13:49;;;;;;;13.63;10.15;;;14.50;87.70;;;;;;4940581;28;20434;-75
2023/09/15 03:16:16;;;;;;;11.80;9.80;;;14.50;87.80;;;;;;4938858;28;20034;-76
2023/09/15 03:18:46;;;;;;;12.75;10.48;;;14.50;87.90;;;;;;5046956;28;20050;-76
2023/09/15 03:21:11;;;;;;;12.10;9.95;;;14.50;88.00;;;;;;4955546;28;20063;-75
2023/09/15 03:23:37;;;;;;;11.77;9.70;;;14.40;87.90;;;;;;4958239;28;20084;-75
2023/09/15 03:26:04;;;;;;;12.32;10.05;;;14.40;88.10;;;;;;4957629;28;20070;-75
2023/09/15 03:28:35;;;;;;;14.63;11.02;;;14.30;88.20;;;;;;4941579;28;20073;-75
2023/09/15 03:31:03;;;;;;;13.25;10.52;;;14.30;88.10;;;;;;4937985;28;20039;-75
2023/09/15 03:33:30;;;;;;;14.10;10.30;;;14.30;88.30;;;;;;4939843;28;20070;-74
2023/09/15 03:35:56;;;;;;;12.85;10.50;;;14.30;88.40;;;;;;4940534;28;20058;-75
2023/09/15 03:38:22;;;;;;;13.23;10.68;;;14.30;88.30;;;;;;4936375;28;20035;-76
2023/09/15 03:40:48;;;;;;;13.02;11.20;;;14.30;88.20;;;;;;4937676;28;20551;-74
2023/09/15 03:43:14;;;;;;;15.60;11.15;;;14.30;88.00;;;;;;4951090;28;20050;-74
2023/09/15 03:45:42;;;;;;;16.17;11.32;;;14.20;88.30;;;;;;4955469;28;20047;-75
2023/09/15 03:48:07;;;;;;;13.85;10.38;;;14.10;88.50;;;;;;4960814;28;20031;-75
2023/09/15 03:50:33;;;;;;;14.20;11.48;;;14.10;88.70;;;;;;4956871;28;20030;-75
2023/09/15 03:52:59;;;;;;;19.88;11.13;;;14.10;88.80;;;;;;4958552;28;20440;-75
2023/09/15 03:55:25;;;;;;;13.95;11.10;;;14.10;88.80;;;;;;4959310;28;20023;-76
2023/09/15 03:57:51;;;;;;;14.05;11.00;;;14.10;88.90;;;;;;4946040;28;20039;-76
2023/09/15 04:00:19;;;;;;;18.25;12.00;;;14.00;88.90;;;;;;4951568;28;20027;-74
2023/09/15 04:02:44;;;;;;;17.48;11.98;;;14.00;88.90;;;;;;4948975;28;20035;-74
2023/09/15 04:05:11;;;;;;;15.43;11.35;;;13.90;89.00;;;;;;4959858;28;20023;-76
2023/09/15 04:07:40;;;;;;;14.23;11.85;;;13.90;89.10;;;;;;4955773;28;20516;-76
2023/09/15 04:10:07;;;;;;;16.05;12.23;;;13.90;89.00;;;;;;4960062;28;20038;-75
2023/09/15 04:12:34;;;;;;;13.68;11.27;;;13.90;89.20;;;;;;4956781;28;20111;-76
2023/09/15 04:15:00;;;;;;;14.32;11.25;;;13.90;89.20;;;;;;4955545;28;20027;-74
2023/09/15 04:17:26;;;;;;;13.63;11.25;;;13.90;89.30;;;;;;4960505;28;20109;-76
2023/09/15 04:19:51;;;;;;;13.70;11.70;;;13.90;89.30;;;;;;4961878;28;20037;-76
2023/09/15 04:22:17;;;;;;;15.95;12.18;;;13.90;89.10;;;;;;4961527;28;20057;-74
2023/09/15 04:24:43;;;;;;;15.95;12.35;;;13.90;89.20;;;;;;4957623;28;20654;-74
2023/09/15 04:27:08;;;;;;;13.43;11.00;;;13.80;89.20;;;;;;4960473;28;20054;-76
2023/09/15 04:29:38;;;;;;;14.38;11.77;;;13.80;89.20;;;;;;4957468;28;20100;-75
2023/09/15 04:32:04;;;;;;;16.17;11.68;;;13.90;89.30;;;;;;4958646;28;20054;-74
2023/09/15 04:34:30;;;;;;;16.38;11.45;;;13.80;89.40;;;;;;4966047;28;20042;-74
2023/09/15 04:36:55;;;;;;;13.23;10.80;;;13.90;89.30;;;;;;4953143;28;20058;-75
2023/09/15 04:39:21;;;;;;;14.85;11.75;;;13.80;89.30;;;;;;4961627;28;20066;-75
2023/09/15 04:41:47;;;;;;;14.40;11.23;;;13.90;89.30;;;;;;4955087;28;20181;-74
2023/09/15 04:44:13;;;;;;;14.85;11.20;;;13.90;89.20;;;;;;4947655;28;20125;-74
2023/09/15 04:46:39;;;;;;;14.10;11.45;;;13.80;89.20;;;;;;4967230;28;20061;-74
2023/09/15 04:49:05;;;;;;;15.07;11.85;;;13.90;89.20;;;;;;4958194;28;20054;-76
2023/09/15 04:51:30;;;;;;;14.05;11.18;;;13.90;89.20;;;;;;4962341;28;20023;-75
2023/09/15 04:53:56;;;;;;;13.27;11.80;;;13.80;89.10;;;;;;4955861;28;20093;-74
2023/09/15 04:56:21;;;;;;;14.32;11.43;;;13.80;89.10;;;;;;4962941;28;20034;-74
2023/09/15 04:58:48;;;;;;;14.38;11.48;;;13.80;89.10;;;;;;4945566;28;20039;-75
2023/09/15 05:01:16;;;;;;;14.90;11.13;;;13.80;89.10;;;;;;4951379;28;20237;-74
2023/09/15 05:03:43;;;;;;;13.63;10.30;;;13.80;89.00;;;;;;4943320;28;20104;-75
2023/09/15 05:06:09;;;;;;;13.98;11.00;;;13.80;88.80;;;;;;4951347;28;20063;-75
2023/09/15 05:08:34;;;;;;;15.07;11.48;;;13.80;88.50;;;;;;4947335;28;20069;-75
2023/09/15 05:11:00;;;;;;;15.07;11.43;;;13.70;88.40;;;;;;4965977;28;20366;-75
2023/09/15 05:13:25;;;;;;;15.35;11.35;;;13.70;88.50;;;;;;4936808;28;20050;-77
2023/09/15 05:15:51;;;;;;;17.58;11.48;;;13.80;88.70;;;;;;4938962;28;20058;-77
2023/09/15 05:18:17;;;;;;;13.50;11.48;;;13.70;88.80;;;;;;4934693;28;20044;-76
2023/09/15 05:20:42;;;;;;;15.35;10.77;;;13.70;88.90;;;;;;4940405;28;20480;-75
2023/09/15 05:23:08;;;;;;;13.15;10.85;;;13.70;89.00;;;;;;4939659;28;20160;-75
2023/09/15 05:25:34;;;;;;;16.27;11.57;;;13.70;89.00;;;;;;4940103;28;20050;-75
2023/09/15 05:28:01;;;;;;;13.52;11.20;;;13.70;89.00;;;;;;4942141;28;20070;-76
2023/09/15 05:30:27;;;;;;;14.75;11.57;;;13.70;89.00;;;;;;4945985;28;20036;-76
2023/09/15 05:32:53;;;;;;;17.60;11.52;;;13.70;89.00;;;;;;4966426;28;20657;-75
2023/09/15 05:35:18;;;;;;;16.35;11.27;;;13.70;89.00;;;;;;4952514;28;20027;-75
2023/09/15 05:37:44;;;;;;;14.35;10.50;;;13.70;88.90;;;;;;4945974;28;20406;-75
2023/09/15 05:40:10;;;;;;;17.75;11.70;;;13.70;88.80;;;;;;4941333;28;20026;-75
2023/09/15 05:42:36;;;;;;;14.13;11.23;;;13.70;88.50;;;;;;5039359;28;20336;-75
2023/09/15 05:45:01;;;;;;;13.30;10.98;;;13.70;88.60;;;;;;4959810;28;20092;-74
2023/09/15 05:47:27;;;;;;;14.43;11.32;;;13.70;88.70;;;;;;4955380;28;20042;-75
2023/09/15 05:49:53;;;;;;;18.13;12.18;;;13.70;88.80;;;;;;4955359;28;20034;-74
2023/09/15 05:52:18;;;;;;;16.65;11.85;;;13.70;88.80;;;;;;4956868;28;20043;-74
2023/09/15 05:54:44;;;;;;;15.35;11.80;;;13.70;88.70;;;;;;4956702;28;20035;-73
2023/09/15 05:57:10;;;;;;;17.75;12.50;;;13.80;88.70;;;;;;4956327;28;20047;-74
2023/09/15 05:59:35;;;;;;;15.63;12.40;;;13.80;88.80;;;;;;4958542;28;20038;-73
2023/09/15 06:02:01;;;;;;;13.73;12.32;;;13.80;88.90;;;;;;4970300;28;20044;-73
2023/09/15 06:04:28;;;;;;;17.13;13.13;;;13.80;88.90;;;;;;4941305;28;20027;-73
2023/09/15 06:06:53;;;;;;;14.70;12.88;;;13.80;89.00;;;;;;4958236;28;20452;-74
2023/09/15 06:09:19;;;;;;;14.15;12.27;;;13.80;89.10;;;;;;4954566;28;20050;-73
2023/09/15 06:11:45;;;;;;;14.50;11.98;;;13.80;89.30;;;;;;4960638;28;20039;-74
2023/09/15 06:14:10;;;;;;;17.88;12.50;;;13.90;89.30;;;;;;4953026;28;20039;-75
2023/09/15 06:16:36;;;;;;;19.65;12.90;;;13.90;89.20;;;;;;4957258;28;20043;-78
2023/09/15 06:19:02;;;;;;;16.58;13.05;;;14.00;89.30;;;;;;4939469;28;20039;-75
2023/09/15 06:21:28;;;;;;;15.07;12.98;;;14.00;89.30;;;;;;4943138;28;20043;-75
2023/09/15 06:23:54;;;;;;;19.92;13.35;;;14.10;89.40;;;;;;4938332;28;20493;-75
2023/09/15 06:26:20;;;;;;;18.35;13.48;;;14.10;89.40;;;;;;4935244;28;20516;-75
2023/09/15 06:28:45;;;;;;;17.90;12.85;;;14.10;89.40;;;;;;4942118;28;20074;-77
2023/09/15 06:31:11;;;;;;;21.95;13.60;;;14.20;89.20;;;;;;4938781;28;20475;-76
2023/09/15 06:33:37;;;;;;;19.98;14.30;;;14.30;89.00;;;;;;4934299;28;20069;-76
2023/09/15 06:36:04;;;;;;;17.92;13.93;;;14.30;89.00;;;;;;4938339;28;20027;-78
2023/09/15 06:38:31;;;;;;;17.23;13.05;;;14.60;89.00;;;;;;4986872;28;20466;-80
2023/09/15 06:40:57;;;;;;;19.02;12.52;;;14.80;87.90;;;;;;5039422;28;20031;-80
2023/09/15 06:43:23;;;;;;;17.33;13.02;;;14.90;87.50;;;;;;4960980;28;20474;-80
2023/09/15 06:45:48;;;;;;;15.43;12.23;;;14.90;87.40;;;;;;4929651;28;20034;-80
2023/09/15 06:48:14;;;;;;;15.85;11.77;;;15.00;87.50;;;;;;4961983;28;20039;-80
2023/09/15 06:50:40;;;;;;;14.05;12.23;;;15.10;87.60;;;;;;4944923;28;20529;-78
2023/09/15 06:53:05;;;;;;;15.00;11.93;;;15.20;87.40;;;;;;4940303;28;20039;-80
2023/09/15 06:55:32;;;;;;;17.83;12.65;;;15.40;87.20;;;;;;4946159;28;20025;-84
2023/09/15 06:57:58;;;;;;;15.45;12.68;;;15.50;87.00;;;;;;4983121;28;20037;-81
2023/09/15 07:00:24;;;;;;;17.63;12.02;;;15.50;86.40;;;;;;5039735;28;20024;-80
2023/09/15 07:02:50;;;;;;;17.73;12.63;;;15.60;86.40;;;;;;5007086;28;20548;-79
2023/09/15 07:05:15;;;;;;;16.48;12.75;;;15.60;86.40;;;;;;5040817;28;20036;-80
2023/09/15 07:07:41;;;;;;;13.20;11.32;;;15.70;86.30;;;;;;4996711;28;20336;-84
2023/09/15 07:10:08;;;;;;;14.88;11.13;;;15.80;86.20;;;;;;4961288;28;20528;-83
2023/09/15 07:12:33;;;;;;;17.92;12.20;;;16.00;86.50;;;;;;4999389;28;20055;-82
2023/09/15 07:15:03;;;;;;;16.73;11.88;;;16.10;86.00;;;;;;4982558;28;20019;-85
2023/09/15 07:17:29;;;;;;;17.25;12.93;;;16.20;85.70;;;;;;4986913;28;20042;-83
2023/09/15 07:19:54;;;;;;;13.98;11.43;;;16.30;84.80;;;;;;4972260;28;20836;-81
2023/09/15 07:22:20;;;;;;;16.90;12.30;;;16.50;84.70;;;;;;4953304;28;20042;-83
2023/09/15 07:24:46;;;;;;;15.30;12.20;;;16.60;84.70;;;;;;4940465;28;20121;-79
2023/09/15 07:27:11;;;;;;;14.55;11.27;;;16.70;84.40;;;;;;4946847;28;20213;-83
2023/09/15 07:29:38;;;;;;;17.92;12.07;;;16.90;83.90;;;;;;4940479;28;20472;-79
2023/09/15 07:32:04;;;;;;;16.10;12.00;;;17.00;83.30;;;;;;4943363;28;20066;-85
2023/09/15 07:34:30;;;;;;;16.23;12.20;;;17.20;83.50;;;;;;5028304;28;20026;-82
2023/09/15 07:36:56;;;;;;;17.65;11.63;;;17.40;83.00;;;;;;5028861;28;20027;-84
2023/09/15 07:39:22;;;;;;;18.40;12.55;;;17.50;82.90;;;;;;4957855;28;20050;-80
2023/09/15 07:41:47;;;;;;;15.65;11.50;;;17.70;82.20;;;;;;4966341;28;20088;-81
2023/09/15 07:44:14;;;;;;;13.82;10.88;;;17.80;81.30;;;;;;4943420;28;20046;-79
2023/09/15 07:46:40;;;;;;;15.85;11.82;;;18.00;81.80;;;;;;4943473;28;20073;-80
2023/09/15 07:49:07;;;;;;;17.90;11.35;;;18.10;80.90;;;;;;4942860;28;20130;-83
2023/09/15 07:51:33;;;;;;;16.10;10.95;;;18.40;81.10;;;;;;4946877;28;20050;-80
2023/09/15 07:53:59;;;;;;;15.93;11.75;;;18.50;79.90;;;;;;4947839;28;20062;-80
2023/09/15 07:56:25;;;;;;;14.18;11.23;;;18.70;80.30;;;;;;4954264;28;20361;-78
2023/09/15 07:58:51;;;;;;;17.08;11.02;;;18.90;79.30;;;;;;4939418;28;20085;-77
2023/09/15 08:01:17;;;;;;;13.65;11.38;;;19.10;79.40;;;;;;4938173;28;20390;-84
2023/09/15 08:03:44;;;;;;;13.10;10.20;;;19.10;78.10;;;;;;4956933;28;20023;-81
2023/09/15 08:06:10;;;;;;;16.38;11.32;;;19.20;78.80;;;;;;4963161;28;20019;-78
2023/09/15 08:08:36;;;;;;;14.65;10.80;;;19.50;78.20;;;;;;4961066;28;20480;-80
2023/09/15 08:11:02;;;;;;;14.55;11.43;;;19.50;78.10;;;;;;4963043;28;20035;-78
2023/09/15 08:13:28;;;;;;;13.73;11.43;;;19.60;77.30;;;;;;4963580;28;20136;-79
2023/09/15 08:15:54;;;;;;;13.70;11.27;;;19.70;77.40;;;;;;4965836;28;20037;-81
2023/09/15 08:18:21;;;;;;;13.00;10.32;;;19.90;77.50;;;;;;4965267;28;20088;-79
2023/09/15 08:20:46;;;;;;;17.17;11.15;;;20.10;77.50;;;;;;4965099;28;20019;-81
2023/09/15 08:23:12;;;;;;;14.07;11.07;;;20.30;77.30;;;;;;4957771;28;20507;-80
2023/09/15 08:25:39;;;;;;;13.15;10.77;;;20.50;76.70;;;;;;4947124;28;20033;-80
2023/09/15 08:28:06;;;;;;;15.30;10.75;;;20.80;76.90;;;;;;4951356;28;20048;-83
2023/09/15 08:30:33;;;;;;;16.63;10.23;;;21.00;75.50;;;;;;4945469;28;20626;-82
2023/09/15 08:32:59;;;;;;;13.73;10.57;;;21.10;75.10;;;;;;4955994;28;20111;-81
2023/09/15 08:35:26;;;;;;;16.90;10.18;;;20.90;75.30;;;;;;4964515;28;20223;-80
2023/09/15 08:37:52;;;;;;;14.57;10.02;;;21.10;75.30;;;;;;4960991;28;20035;-78
2023/09/15 08:40:22;;;;;;;14.90;10.75;;;21.30;75.10;;;;;;4963707;28;20023;-76
2023/09/15 08:42:48;;;;;;;13.57;9.98;;;21.40;73.80;;;;;;4970918;28;20041;-80
2023/09/15 08:45:14;;;;;;;14.63;10.60;;;21.60;74.10;;;;;;4964237;28;20329;-77
2023/09/15 08:47:45;;;;;;;16.75;10.57;;;21.90;73.60;;;;;;4966330;28;20045;-78
2023/09/15 08:50:11;;;;;;;15.77;9.93;;;22.10;72.60;;;;;;4968256;28;20030;-79
2023/09/15 08:52:37;;;;;;;13.55;9.80;;;22.30;72.60;;;;;;4972007;28;20048;-76
2023/09/15 08:55:04;;;;;;;14.85;10.30;;;22.50;70.00;;;;;;4963521;28;20023;-77
2023/09/15 08:57:30;;;;;;;13.07;9.52;;;22.50;70.80;;;;;;4960964;28;20513;-77
2023/09/15 08:59:57;;;;;;;15.35;9.38;;;22.50;71.10;;;;;;4963085;28;20260;-78
2023/09/15 09:02:24;;;;;;;13.02;10.23;;;22.60;71.70;;;;;;4960997;28;20073;-80
2023/09/15 09:04:52;;;;;;;14.07;9.30;;;22.70;70.90;;;;;;4960533;28;20457;-80
2023/09/15 09:07:21;;;;;;;11.88;8.10;;;23.00;71.20;;;;;;4962036;28;20489;-78
2023/09/15 09:09:48;;;;;;;12.43;9.32;;;23.20;70.10;;;;;;5041149;28;20033;-77
2023/09/15 09:12:14;;;;;;;13.95;8.82;;;23.30;69.40;;;;;;5016585;28;20047;-78
2023/09/15 09:14:41;;;;;;;11.43;8.43;;;23.40;68.00;;;;;;4973843;28;20065;-77
2023/09/15 09:17:08;;;;;;;11.88;9.25;;;23.50;68.50;;;;;;4953847;28;20496;-76
2023/09/15 09:19:38;;;;;;;15.40;9.43;;;23.60;67.70;;;;;;4951723;28;20056;-77
2023/09/15 09:22:07;;;;;;;10.38;8.10;;;23.20;68.50;;;;;;4959221;28;20034;-75
2023/09/15 09:24:35;;;;;;;12.35;8.32;;;23.20;70.10;;;;;;4952515;28;20118;-79
2023/09/15 09:27:01;;;;;;;11.93;8.43;;;23.40;69.00;;;;;;4959043;28;20437;-78
2023/09/15 09:29:30;;;;;;;11.20;8.15;;;23.50;68.50;;;;;;4961439;28;20042;-76
2023/09/15 09:31:56;;;;;;;14.00;8.35;;;23.50;67.70;;;;;;4965916;28;20035;-76
2023/09/15 09:34:23;;;;;;;8.80;6.43;;;23.70;67.10;;;;;;4943191;28;20032;-81
2023/09/15 09:36:50;;;;;;;10.73;6.30;;;24.00;67.60;;;;;;4947156;28;20054;-79
2023/09/15 09:39:16;;;;;;;9.00;5.45;;;24.10;64.70;;;;;;4949513;28;20397;-79
2023/09/15 09:41:44;;;;;;;8.45;5.10;;;24.10;64.80;;;;;;4945649;28;20028;-79
2023/09/15 09:44:12;;;;;;;9.38;5.55;;;24.10;65.80;;;;;;4943404;28;20842;-77
2023/09/15 09:46:41;;;;;;;8.43;4.25;;;24.40;64.70;;;;;;4940815;28;20015;-77
2023/09/15 09:49:08;;;;;;;9.60;4.63;;;24.50;64.20;;;;;;4942985;28;20085;-79
2023/09/15 09:51:39;;;;;;;9.90;5.28;;;24.70;64.30;;;;;;4942706;28;20084;-75
2023/09/15 09:54:07;;;;;;;8.95;4.47;;;24.70;63.10;;;;;;4935001;28;20126;-80
2023/09/15 09:56:33;;;;;;;7.63;4.20;;;24.80;63.40;;;;;;4937393;28;20028;-78
2023/09/15 09:59:11;;;;;;;8.93;4.30;;;24.90;61.50;;;;;;4936704;28;20036;-79
2023/09/15 10:01:37;;;;;;;7.43;3.90;;;25.10;61.70;;;;;;4954196;28;20023;-76
2023/09/15 10:04:06;;;;;;;7.55;4.03;;;25.00;60.60;;;;;;4954543;28;20030;-75
2023/09/15 10:06:37;;;;;;;6.43;3.75;;;25.10;60.60;;;;;;4963175;28;20023;-76
2023/09/15 10:09:07;;;;;;;6.95;3.97;;;25.00;60.90;;;;;;4951047;28;20031;-80
2023/09/15 10:11:34;;;;;;;9.00;4.07;;;25.10;60.40;;;;;;4946756;28;20124;-75
2023/09/15 10:14:04;;;;;;;7.00;3.80;;;25.40;60.50;;;;;;4951702;28;20052;-77
2023/09/15 10:16:32;;;;;;;6.55;3.40;;;25.40;59.20;;;;;;4950440;28;20444;-76
2023/09/15 10:18:58;;;;;;;11.95;4.25;;;25.50;57.80;;;;;;4962776;28;20030;-75
2023/09/15 10:21:25;;;;;;;7.53;3.65;;;25.60;57.30;;;;;;4950239;28;20533;-77
2023/09/15 10:24:08;;;;;;;8.18;3.83;;;25.50;58.20;;;;;;4956896;28;20465;-79
2023/09/15 10:26:34;;;;;;;7.88;3.70;;;25.60;58.80;;;;;;4955502;28;20120;-77
2023/09/15 10:29:04;;;;;;;7.47;4.25;;;25.60;57.20;;;;;;5002129;28;20120;-78
2023/09/15 10:31:30;;;;;;;7.35;4.25;;;25.60;57.30;;;;;;5040010;28;20047;-75
2023/09/15 10:34:00;;;;;;;8.30;4.57;;;25.60;57.60;;;;;;4936129;28;20046;-77
2023/09/15 10:36:27;;;;;;;7.82;3.90;;;25.60;57.90;;;;;;4938699;28;20039;-78
2023/09/15 10:38:54;;;;;;;8.68;4.65;;;25.60;56.80;;;;;;4956321;28;20081;-77
2023/09/15 10:41:29;;;;;;;7.57;3.90;;;25.50;56.60;;;;;;4963580;28;20023;-79
2023/09/15 10:43:55;;;;;;;8.13;3.90;;;25.60;57.20;;;;;;4958604;28;20031;-77
2023/09/15 10:46:21;;;;;;;8.05;3.63;;;25.60;56.60;;;;;;4960168;28;20026;-76
2023/09/15 10:48:48;;;;;;;7.78;3.90;;;25.50;56.40;;;;;;4961330;28;20038;-78
2023/09/15 10:51:17;;;;;;;7.68;3.70;;;25.70;56.30;;;;;;4959799;28;20072;-77
2023/09/15 10:53:44;;;;;;;7.78;3.53;;;25.70;55.60;;;;;;4956217;28;20042;-79
2023/09/15 10:56:10;;;;;;;6.70;2.92;;;26.00;55.20;;;;;;4958977;28;20026;-82
2023/09/15 10:58:37;;;;;;;5.80;3.15;;;26.10;53.50;;;;;;4957676;28;20037;-78
2023/09/15 11:01:03;;;;;;;7.80;3.42;;;25.90;53.70;;;;;;4957609;28;20058;-79
2023/09/15 11:03:30;;;;;;;7.43;2.90;;;26.00;54.80;;;;;;4957833;28;20046;-78
2023/09/15 11:05:59;;;;;;;5.00;2.95;;;25.90;53.90;;;;;;4955781;28;20023;-79
2023/09/15 11:08:26;;;;;;;7.40;3.10;;;25.70;54.60;;;;;;4954291;28;20043;-79
2023/09/15 11:11:07;;;;;;;8.32;3.22;;;26.00;54.70;;;;;;4955716;28;20063;-79
2023/09/15 11:13:33;;;;;;;5.57;2.70;;;26.00;53.20;;;;;;4955930;28;20042;-79
2023/09/15 11:16:00;;;;;;;4.72;2.47;;;26.00;54.60;;;;;;4954511;28;20474;-79
2023/09/15 11:18:26;;;;;;;6.03;3.00;;;26.10;53.70;;;;;;4957166;28;20062;-80
2023/09/15 11:20:52;;;;;;;6.53;2.92;;;26.10;52.80;;;;;;4957517;28;20153;-78
2023/09/15 11:23:18;;;;;;;6.35;2.90;;;25.90;52.90;;;;;;4957136;28;20495;-78
2023/09/15 11:25:44;;;;;;;8.13;3.05;;;26.10;54.10;;;;;;4961085;28;20031;-79
2023/09/15 11:28:15;;;;;;;5.63;2.88;;;26.20;53.20;;;;;;4957822;28;20047;-79
2023/09/15 11:30:42;;;;;;;5.10;3.00;;;26.30;54.00;;;;;;4957627;28;20031;-79
2023/09/15 11:33:08;;;;;;;8.57;2.83;;;26.40;53.20;;;;;;4956124;28;20038;-81
2023/09/15 11:35:37;;;;;;;5.50;2.90;;;26.10;53.00;;;;;;4958559;28;20109;-79
2023/09/15 11:38:03;;;;;;;6.57;3.03;;;26.00;53.50;;;;;;4957179;28;20039;-80
2023/09/15 11:40:29;;;;;;;5.43;2.80;;;26.20;53.60;;;;;;4959087;28;20031;-81
2023/09/15 11:43:01;;;;;;;5.75;2.90;;;26.20;54.20;;;;;;4959177;28;20047;-83
2023/09/15 11:45:28;;;;;;;5.20;2.53;;;26.10;54.30;;;;;;4956691;28;20046;-81
2023/09/15 11:47:59;;;;;;;5.88;2.97;;;26.30;54.90;;;;;;4960081;28;20374;-86
2023/09/15 11:50:26;;;;;;;5.03;2.60;;;26.50;53.80;;;;;;4951214;28;20058;-82
2023/09/15 11:52:52;;;;;;;7.57;2.90;;;26.50;53.80;;;;;;4946287;28;20070;-81
2023/09/15 11:55:23;;;;;;;7.00;3.40;;;26.50;51.40;;;;;;4935241;28;20027;-81
2023/09/15 11:57:50;;;;;;;6.38;2.95;;;26.20;51.70;;;;;;4939849;28;20258;-82
2023/09/15 12:00:19;;;;;;;4.82;2.60;;;26.20;53.20;;;;;;4936107;28;20027;-82
2023/09/15 12:02:46;;;;;;;7.50;3.00;;;26.50;53.20;;;;;;4939704;28;20051;-79
2023/09/15 12:05:14;;;;;;;6.75;3.17;;;26.50;52.40;;;;;;4939219;28;20490;-80
2023/09/15 12:07:42;;;;;;;6.38;2.80;;;26.40;52.20;;;;;;4934086;28;20044;-80
2023/09/15 12:10:07;;;;;;;10.93;3.22;;;26.50;53.00;;;;;;4936870;28;20102;-81
2023/09/15 12:12:33;;;;;;;12.85;2.97;;;26.60;52.50;;;;;;4947192;28;20315;-78
2023/09/15 12:15:04;;;;;;;6.03;3.10;;;26.60;52.40;;;;;;4953466;28;20024;-77
2023/09/15 12:17:31;;;;;;;6.85;3.00;;;26.60;53.40;;;;;;4956660;28;20050;-76
2023/09/15 12:20:04;;;;;;;6.43;3.25;;;26.70;53.90;;;;;;4957425;28;20022;-78
2023/09/15 12:22:31;;;;;;;5.72;3.03;;;26.50;53.80;;;;;;4954160;28;20039;-79
2023/09/15 12:25:01;;;;;;;6.53;3.15;;;26.30;53.80;;;;;;4959388;28;20071;-78
2023/09/15 12:27:27;;;;;;;5.97;2.97;;;26.30;53.20;;;;;;4958938;28;20035;-78
2023/09/15 12:29:53;;;;;;;7.00;3.13;;;26.30;54.00;;;;;;4972399;28;20023;-78
2023/09/15 12:32:26;;;;;;;7.43;2.90;;;26.40;53.10;;;;;;4970470;28;20563;-77
2023/09/15 12:34:53;;;;;;;6.40;3.65;;;26.60;53.50;;;;;;4958749;28;21193;-79